sensor_id;sensor_type;location;lat;lon;timestamp;P1;durP1;ratioP1;P2;durP2;ratioP2
6207;SDS011;3137;51.550;7.060;2024-02-16T00:01:17;2.97;;;2.40;;
6207;SDS011;3137;51.550;7.060;2024-02-16T00:03:44;2.20;;;2.20;;
6207;SDS011;3137;51.550;7.060;2024-02-16T00:06:10;2.60;;;2.60;;
6207;SDS011;3137;51.550;7.060;2024-02-16T00:08:38;2.37;;;2.30;;
6207;SDS011;3137;51.550;7.060;2024-02-16T00:11:05;3.03;;;2.83;;
6207;SDS011;3137;51.550;7.060;2024-02-16T00:13:32;5.97;;;5.67;;
6207;SDS011;3137;51.550;7.060;2024-02-16T00:15:58;3.60;;;2.63;;
6207;SDS011;3137;51.550;7.060;2024-02-16T00:18:25;2.10;;;2.10;;
6207;SDS011;3137;51.550;7.060;2024-02-16T00:20:51;2.40;;;2.40;;
6207;SDS011;3137;51.550;7.060;2024-02-16T00:23:18;2.67;;;2.53;;
6207;SDS011;3137;51.550;7.060;2024-02-16T00:25:48;4.47;;;2.80;;
6207;SDS011;3137;51.550;7.060;2024-02-16T00:28:15;2.37;;;2.37;;
6207;SDS011;3137;51.550;7.060;2024-02-16T00:30:41;2.50;;;2.37;;
6207;SDS011;3137;51.550;7.060;2024-02-16T00:33:08;2.93;;;2.93;;
6207;SDS011;3137;51.550;7.060;2024-02-16T00:35:34;3.63;;;2.50;;
6207;SDS011;3137;51.550;7.060;2024-02-16T00:38:01;4.03;;;2.60;;
6207;SDS011;3137;51.550;7.060;2024-02-16T00:40:27;2.40;;;2.20;;
6207;SDS011;3137;51.550;7.060;2024-02-16T00:42:54;2.40;;;2.33;;
6207;SDS011;3137;51.550;7.060;2024-02-16T00:45:21;2.50;;;2.50;;
6207;SDS011;3137;51.550;7.060;2024-02-16T00:47:47;2.47;;;2.37;;
6207;SDS011;3137;51.550;7.060;2024-02-16T00:50:15;2.00;;;2.00;;
6207;SDS011;3137;51.550;7.060;2024-02-16T00:52:41;2.30;;;2.20;;
6207;SDS011;3137;51.550;7.060;2024-02-16T00:55:11;2.90;;;2.70;;
6207;SDS011;3137;51.550;7.060;2024-02-16T00:57:39;4.37;;;2.63;;
6207;SDS011;3137;51.550;7.060;2024-02-16T01:00:05;2.60;;;2.60;;
6207;SDS011;3137;51.550;7.060;2024-02-16T01:02:32;2.60;;;2.50;;
6207;SDS011;3137;51.550;7.060;2024-02-16T01:04:59;3.13;;;2.60;;
6207;SDS011;3137;51.550;7.060;2024-02-16T01:07:29;4.97;;;2.40;;
6207;SDS011;3137;51.550;7.060;2024-02-16T01:09:57;2.17;;;2.17;;
6207;SDS011;3137;51.550;7.060;2024-02-16T01:12:23;9.13;;;2.47;;
6207;SDS011;3137;51.550;7.060;2024-02-16T01:14:50;2.57;;;2.37;;
6207;SDS011;3137;51.550;7.060;2024-02-16T01:17:17;2.90;;;2.80;;
6207;SDS011;3137;51.550;7.060;2024-02-16T01:19:43;2.60;;;2.60;;
6207;SDS011;3137;51.550;7.060;2024-02-16T01:22:09;4.30;;;2.03;;
6207;SDS011;3137;51.550;7.060;2024-02-16T01:24:36;3.00;;;2.90;;
6207;SDS011;3137;51.550;7.060;2024-02-16T01:27:02;2.90;;;2.90;;
6207;SDS011;3137;51.550;7.060;2024-02-16T01:29:29;3.13;;;2.90;;
6207;SDS011;3137;51.550;7.060;2024-02-16T01:31:55;20.43;;;2.90;;
6207;SDS011;3137;51.550;7.060;2024-02-16T01:34:22;2.80;;;2.70;;
6207;SDS011;3137;51.550;7.060;2024-02-16T01:36:48;2.70;;;2.70;;
6207;SDS011;3137;51.550;7.060;2024-02-16T01:39:15;3.00;;;3.00;;
6207;SDS011;3137;51.550;7.060;2024-02-16T01:41:41;2.70;;;2.70;;
6207;SDS011;3137;51.550;7.060;2024-02-16T01:44:07;2.43;;;2.33;;
6207;SDS011;3137;51.550;7.060;2024-02-16T01:46:34;2.53;;;2.50;;
6207;SDS011;3137;51.550;7.060;2024-02-16T01:49:01;2.70;;;2.70;;
6207;SDS011;3137;51.550;7.060;2024-02-16T01:51:29;2.63;;;2.53;;
6207;SDS011;3137;51.550;7.060;2024-02-16T01:53:56;2.80;;;2.70;;
6207;SDS011;3137;51.550;7.060;2024-02-16T01:56:22;2.90;;;2.83;;
6207;SDS011;3137;51.550;7.060;2024-02-16T01:58:49;4.17;;;2.80;;
6207;SDS011;3137;51.550;7.060;2024-02-16T02:01:18;2.37;;;2.37;;
6207;SDS011;3137;51.550;7.060;2024-02-16T02:03:44;2.93;;;2.73;;
6207;SDS011;3137;51.550;7.060;2024-02-16T02:06:11;2.37;;;2.33;;
6207;SDS011;3137;51.550;7.060;2024-02-16T02:08:37;2.97;;;2.97;;
6207;SDS011;3137;51.550;7.060;2024-02-16T02:11:04;2.80;;;2.80;;
6207;SDS011;3137;51.550;7.060;2024-02-16T02:13:31;3.40;;;3.10;;
6207;SDS011;3137;51.550;7.060;2024-02-16T02:15:58;3.20;;;3.10;;
6207;SDS011;3137;51.550;7.060;2024-02-16T02:18:25;2.97;;;2.77;;
6207;SDS011;3137;51.550;7.060;2024-02-16T02:20:52;2.80;;;2.60;;
6207;SDS011;3137;51.550;7.060;2024-02-16T02:23:19;6.43;;;3.10;;
6207;SDS011;3137;51.550;7.060;2024-02-16T02:25:46;2.97;;;2.77;;
6207;SDS011;3137;51.550;7.060;2024-02-16T02:28:15;2.67;;;2.57;;
6207;SDS011;3137;51.550;7.060;2024-02-16T02:30:43;3.13;;;3.03;;
6207;SDS011;3137;51.550;7.060;2024-02-16T02:33:11;2.90;;;2.90;;
6207;SDS011;3137;51.550;7.060;2024-02-16T02:35:39;2.60;;;2.50;;
6207;SDS011;3137;51.550;7.060;2024-02-16T02:38:06;2.30;;;2.30;;
6207;SDS011;3137;51.550;7.060;2024-02-16T02:40:33;2.87;;;2.77;;
6207;SDS011;3137;51.550;7.060;2024-02-16T02:42:59;2.70;;;2.60;;
6207;SDS011;3137;51.550;7.060;2024-02-16T02:45:26;3.90;;;2.60;;
6207;SDS011;3137;51.550;7.060;2024-02-16T02:47:52;2.33;;;2.33;;
6207;SDS011;3137;51.550;7.060;2024-02-16T02:50:19;3.13;;;3.03;;
6207;SDS011;3137;51.550;7.060;2024-02-16T02:52:45;3.13;;;2.60;;
6207;SDS011;3137;51.550;7.060;2024-02-16T02:55:12;2.73;;;2.73;;
6207;SDS011;3137;51.550;7.060;2024-02-16T02:57:39;4.20;;;4.10;;
6207;SDS011;3137;51.550;7.060;2024-02-16T03:00:05;5.27;;;5.00;;
6207;SDS011;3137;51.550;7.060;2024-02-16T03:02:37;4.10;;;4.00;;
6207;SDS011;3137;51.550;7.060;2024-02-16T03:05:05;6.37;;;5.90;;
6207;SDS011;3137;51.550;7.060;2024-02-16T03:07:33;3.50;;;2.90;;
6207;SDS011;3137;51.550;7.060;2024-02-16T03:10:00;3.57;;;3.37;;
6207;SDS011;3137;51.550;7.060;2024-02-16T03:12:27;2.97;;;2.87;;
6207;SDS011;3137;51.550;7.060;2024-02-16T03:14:54;2.70;;;2.50;;
6207;SDS011;3137;51.550;7.060;2024-02-16T03:17:20;2.83;;;2.67;;
6207;SDS011;3137;51.550;7.060;2024-02-16T03:19:47;7.43;;;5.77;;
6207;SDS011;3137;51.550;7.060;2024-02-16T03:22:14;20.67;;;11.17;;
6207;SDS011;3137;51.550;7.060;2024-02-16T03:24:40;2.87;;;2.83;;
6207;SDS011;3137;51.550;7.060;2024-02-16T03:27:07;3.10;;;3.10;;
6207;SDS011;3137;51.550;7.060;2024-02-16T03:29:33;5.83;;;3.10;;
6207;SDS011;3137;51.550;7.060;2024-02-16T03:31:59;3.13;;;3.03;;
6207;SDS011;3137;51.550;7.060;2024-02-16T03:34:26;3.43;;;3.30;;
6207;SDS011;3137;51.550;7.060;2024-02-16T03:36:52;3.70;;;3.60;;
6207;SDS011;3137;51.550;7.060;2024-02-16T03:39:20;4.63;;;4.33;;
6207;SDS011;3137;51.550;7.060;2024-02-16T03:41:46;5.90;;;2.87;;
6207;SDS011;3137;51.550;7.060;2024-02-16T03:44:16;4.13;;;4.03;;
6207;SDS011;3137;51.550;7.060;2024-02-16T03:46:42;3.80;;;3.60;;
6207;SDS011;3137;51.550;7.060;2024-02-16T03:49:09;10.50;;;5.00;;
6207;SDS011;3137;51.550;7.060;2024-02-16T03:51:36;5.20;;;3.40;;
6207;SDS011;3137;51.550;7.060;2024-02-16T03:54:03;7.00;;;2.90;;
6207;SDS011;3137;51.550;7.060;2024-02-16T03:56:33;2.73;;;2.63;;
6207;SDS011;3137;51.550;7.060;2024-02-16T03:59:00;5.90;;;2.70;;
6207;SDS011;3137;51.550;7.060;2024-02-16T04:01:27;3.07;;;2.97;;
6207;SDS011;3137;51.550;7.060;2024-02-16T04:03:53;3.77;;;3.10;;
6207;SDS011;3137;51.550;7.060;2024-02-16T04:06:19;4.00;;;3.70;;
6207;SDS011;3137;51.550;7.060;2024-02-16T04:08:46;5.30;;;2.77;;
6207;SDS011;3137;51.550;7.060;2024-02-16T04:11:14;3.50;;;3.30;;
6207;SDS011;3137;51.550;7.060;2024-02-16T04:13:41;2.67;;;2.47;;
6207;SDS011;3137;51.550;7.060;2024-02-16T04:16:08;2.93;;;2.67;;
6207;SDS011;3137;51.550;7.060;2024-02-16T04:18:34;3.07;;;2.87;;
6207;SDS011;3137;51.550;7.060;2024-02-16T04:21:01;2.60;;;2.60;;
6207;SDS011;3137;51.550;7.060;2024-02-16T04:23:28;4.80;;;2.57;;
6207;SDS011;3137;51.550;7.060;2024-02-16T04:25:54;3.60;;;3.20;;
6207;SDS011;3137;51.550;7.060;2024-02-16T04:28:21;2.40;;;2.37;;
6207;SDS011;3137;51.550;7.060;2024-02-16T04:30:48;2.90;;;2.83;;
6207;SDS011;3137;51.550;7.060;2024-02-16T04:33:14;6.43;;;2.67;;
6207;SDS011;3137;51.550;7.060;2024-02-16T04:35:41;2.83;;;2.70;;
6207;SDS011;3137;51.550;7.060;2024-02-16T04:38:07;3.27;;;3.00;;
6207;SDS011;3137;51.550;7.060;2024-02-16T04:40:36;3.43;;;3.33;;
6207;SDS011;3137;51.550;7.060;2024-02-16T04:43:03;3.17;;;3.17;;
6207;SDS011;3137;51.550;7.060;2024-02-16T04:45:30;2.80;;;2.80;;
6207;SDS011;3137;51.550;7.060;2024-02-16T04:47:56;3.80;;;3.63;;
6207;SDS011;3137;51.550;7.060;2024-02-16T04:50:23;10.43;;;3.40;;
6207;SDS011;3137;51.550;7.060;2024-02-16T04:52:50;6.33;;;3.10;;
6207;SDS011;3137;51.550;7.060;2024-02-16T04:55:16;4.00;;;3.33;;
6207;SDS011;3137;51.550;7.060;2024-02-16T04:57:42;3.67;;;3.40;;
6207;SDS011;3137;51.550;7.060;2024-02-16T05:00:09;3.20;;;3.03;;
6207;SDS011;3137;51.550;7.060;2024-02-16T05:02:36;4.90;;;3.07;;
6207;SDS011;3137;51.550;7.060;2024-02-16T05:05:03;3.40;;;3.40;;
6207;SDS011;3137;51.550;7.060;2024-02-16T05:07:30;3.27;;;3.27;;
6207;SDS011;3137;51.550;7.060;2024-02-16T05:09:57;3.30;;;3.20;;
6207;SDS011;3137;51.550;7.060;2024-02-16T05:12:25;3.23;;;3.13;;
6207;SDS011;3137;51.550;7.060;2024-02-16T05:14:52;3.70;;;3.60;;
6207;SDS011;3137;51.550;7.060;2024-02-16T05:17:19;3.20;;;3.10;;
6207;SDS011;3137;51.550;7.060;2024-02-16T05:19:48;3.03;;;2.97;;
6207;SDS011;3137;51.550;7.060;2024-02-16T05:22:15;3.03;;;2.93;;
6207;SDS011;3137;51.550;7.060;2024-02-16T05:24:43;3.03;;;2.97;;
6207;SDS011;3137;51.550;7.060;2024-02-16T05:27:09;2.97;;;2.97;;
6207;SDS011;3137;51.550;7.060;2024-02-16T05:29:37;3.77;;;3.40;;
6207;SDS011;3137;51.550;7.060;2024-02-16T05:32:03;2.80;;;2.80;;
6207;SDS011;3137;51.550;7.060;2024-02-16T05:34:30;5.23;;;3.40;;
6207;SDS011;3137;51.550;7.060;2024-02-16T05:37:06;2.83;;;2.80;;
6207;SDS011;3137;51.550;7.060;2024-02-16T05:39:33;3.67;;;3.57;;
6207;SDS011;3137;51.550;7.060;2024-02-16T05:42:09;3.67;;;3.50;;
6207;SDS011;3137;51.550;7.060;2024-02-16T05:44:36;5.23;;;3.47;;
6207;SDS011;3137;51.550;7.060;2024-02-16T05:47:03;2.67;;;2.67;;
6207;SDS011;3137;51.550;7.060;2024-02-16T05:49:30;3.50;;;3.30;;
6207;SDS011;3137;51.550;7.060;2024-02-16T05:51:56;3.93;;;3.60;;
6207;SDS011;3137;51.550;7.060;2024-02-16T05:54:42;3.83;;;3.70;;
6207;SDS011;3137;51.550;7.060;2024-02-16T05:57:08;3.80;;;3.60;;
6207;SDS011;3137;51.550;7.060;2024-02-16T05:59:35;4.03;;;3.40;;
6207;SDS011;3137;51.550;7.060;2024-02-16T06:02:02;3.53;;;3.23;;
6207;SDS011;3137;51.550;7.060;2024-02-16T06:04:29;3.50;;;3.40;;
6207;SDS011;3137;51.550;7.060;2024-02-16T06:06:55;3.77;;;3.60;;
6207;SDS011;3137;51.550;7.060;2024-02-16T06:09:22;4.10;;;3.80;;
6207;SDS011;3137;51.550;7.060;2024-02-16T06:11:48;3.90;;;3.57;;
6207;SDS011;3137;51.550;7.060;2024-02-16T06:14:15;3.77;;;3.67;;
6207;SDS011;3137;51.550;7.060;2024-02-16T06:16:45;7.60;;;3.90;;
6207;SDS011;3137;51.550;7.060;2024-02-16T06:19:24;3.67;;;3.57;;
6207;SDS011;3137;51.550;7.060;2024-02-16T06:21:52;3.33;;;3.03;;
6207;SDS011;3137;51.550;7.060;2024-02-16T06:24:23;3.57;;;3.37;;
6207;SDS011;3137;51.550;7.060;2024-02-16T06:26:50;17.73;;;3.80;;
6207;SDS011;3137;51.550;7.060;2024-02-16T06:29:22;3.57;;;3.30;;
6207;SDS011;3137;51.550;7.060;2024-02-16T06:31:48;10.33;;;3.50;;
6207;SDS011;3137;51.550;7.060;2024-02-16T06:34:15;4.40;;;4.10;;
6207;SDS011;3137;51.550;7.060;2024-02-16T06:36:42;4.33;;;3.47;;
6207;SDS011;3137;51.550;7.060;2024-02-16T06:39:09;4.00;;;3.90;;
6207;SDS011;3137;51.550;7.060;2024-02-16T06:41:36;4.37;;;4.10;;
6207;SDS011;3137;51.550;7.060;2024-02-16T06:44:06;3.97;;;3.87;;
6207;SDS011;3137;51.550;7.060;2024-02-16T06:46:33;3.93;;;3.80;;
6207;SDS011;3137;51.550;7.060;2024-02-16T06:48:59;5.17;;;3.77;;
6207;SDS011;3137;51.550;7.060;2024-02-16T06:51:26;4.00;;;3.67;;
6207;SDS011;3137;51.550;7.060;2024-02-16T06:53:54;4.63;;;4.27;;
6207;SDS011;3137;51.550;7.060;2024-02-16T06:56:21;4.43;;;3.70;;
6207;SDS011;3137;51.550;7.060;2024-02-16T06:58:47;10.30;;;4.87;;
6207;SDS011;3137;51.550;7.060;2024-02-16T07:01:14;5.37;;;3.90;;
6207;SDS011;3137;51.550;7.060;2024-02-16T07:03:41;5.73;;;4.23;;
6207;SDS011;3137;51.550;7.060;2024-02-16T07:06:09;6.37;;;4.13;;
6207;SDS011;3137;51.550;7.060;2024-02-16T07:08:40;4.90;;;4.40;;
6207;SDS011;3137;51.550;7.060;2024-02-16T07:11:07;5.03;;;3.73;;
6207;SDS011;3137;51.550;7.060;2024-02-16T07:13:34;6.50;;;3.47;;
6207;SDS011;3137;51.550;7.060;2024-02-16T07:16:01;3.60;;;3.50;;
6207;SDS011;3137;51.550;7.060;2024-02-16T07:18:27;9.13;;;3.60;;
6207;SDS011;3137;51.550;7.060;2024-02-16T07:20:54;8.43;;;3.73;;
6207;SDS011;3137;51.550;7.060;2024-02-16T07:23:20;6.63;;;3.97;;
6207;SDS011;3137;51.550;7.060;2024-02-16T07:25:47;4.13;;;3.73;;
6207;SDS011;3137;51.550;7.060;2024-02-16T07:28:15;4.03;;;3.93;;
6207;SDS011;3137;51.550;7.060;2024-02-16T07:30:41;6.10;;;3.83;;
6207;SDS011;3137;51.550;7.060;2024-02-16T07:33:09;3.80;;;3.60;;
6207;SDS011;3137;51.550;7.060;2024-02-16T07:35:36;3.50;;;3.30;;
6207;SDS011;3137;51.550;7.060;2024-02-16T07:38:04;4.70;;;4.03;;
6207;SDS011;3137;51.550;7.060;2024-02-16T07:40:31;2.97;;;2.87;;
6207;SDS011;3137;51.550;7.060;2024-02-16T07:42:58;7.77;;;4.53;;
6207;SDS011;3137;51.550;7.060;2024-02-16T07:45:24;5.07;;;3.60;;
6207;SDS011;3137;51.550;7.060;2024-02-16T07:47:51;4.00;;;3.27;;
6207;SDS011;3137;51.550;7.060;2024-02-16T07:50:19;5.60;;;3.77;;
6207;SDS011;3137;51.550;7.060;2024-02-16T07:52:46;6.83;;;3.73;;
6207;SDS011;3137;51.550;7.060;2024-02-16T07:55:13;5.67;;;3.83;;
6207;SDS011;3137;51.550;7.060;2024-02-16T07:57:41;4.67;;;3.20;;
6207;SDS011;3137;51.550;7.060;2024-02-16T08:00:07;5.43;;;3.47;;
6207;SDS011;3137;51.550;7.060;2024-02-16T08:02:37;3.20;;;3.13;;
6207;SDS011;3137;51.550;7.060;2024-02-16T08:05:05;4.23;;;3.87;;
6207;SDS011;3137;51.550;7.060;2024-02-16T08:07:34;4.50;;;3.43;;
6207;SDS011;3137;51.550;7.060;2024-02-16T08:10:00;4.30;;;3.27;;
6207;SDS011;3137;51.550;7.060;2024-02-16T08:12:27;3.87;;;3.67;;
6207;SDS011;3137;51.550;7.060;2024-02-16T08:14:54;3.90;;;3.67;;
6207;SDS011;3137;51.550;7.060;2024-02-16T08:17:24;4.27;;;4.10;;
6207;SDS011;3137;51.550;7.060;2024-02-16T08:19:51;4.60;;;3.40;;
6207;SDS011;3137;51.550;7.060;2024-02-16T08:22:20;5.60;;;3.60;;
6207;SDS011;3137;51.550;7.060;2024-02-16T08:24:47;3.73;;;3.30;;
6207;SDS011;3137;51.550;7.060;2024-02-16T08:27:16;4.60;;;3.40;;
6207;SDS011;3137;51.550;7.060;2024-02-16T08:29:43;3.60;;;3.40;;
6207;SDS011;3137;51.550;7.060;2024-02-16T08:32:09;4.33;;;4.00;;
6207;SDS011;3137;51.550;7.060;2024-02-16T08:34:36;6.13;;;3.90;;
6207;SDS011;3137;51.550;7.060;2024-02-16T08:37:04;3.40;;;3.23;;
6207;SDS011;3137;51.550;7.060;2024-02-16T08:39:33;10.47;;;3.83;;
6207;SDS011;3137;51.550;7.060;2024-02-16T08:42:01;3.60;;;3.33;;
6207;SDS011;3137;51.550;7.060;2024-02-16T08:44:27;3.83;;;3.67;;
6207;SDS011;3137;51.550;7.060;2024-02-16T08:46:54;5.40;;;3.40;;
6207;SDS011;3137;51.550;7.060;2024-02-16T08:49:21;4.20;;;4.00;;
6207;SDS011;3137;51.550;7.060;2024-02-16T08:51:47;3.83;;;3.50;;
6207;SDS011;3137;51.550;7.060;2024-02-16T08:54:14;6.60;;;3.63;;
6207;SDS011;3137;51.550;7.060;2024-02-16T08:56:41;11.10;;;3.50;;
6207;SDS011;3137;51.550;7.060;2024-02-16T08:59:07;4.63;;;3.03;;
6207;SDS011;3137;51.550;7.060;2024-02-16T09:01:35;8.20;;;3.33;;
6207;SDS011;3137;51.550;7.060;2024-02-16T09:04:02;5.70;;;3.60;;
6207;SDS011;3137;51.550;7.060;2024-02-16T09:06:29;4.23;;;3.90;;
6207;SDS011;3137;51.550;7.060;2024-02-16T09:08:56;4.50;;;3.47;;
6207;SDS011;3137;51.550;7.060;2024-02-16T09:11:23;3.83;;;3.63;;
6207;SDS011;3137;51.550;7.060;2024-02-16T09:13:50;4.23;;;3.83;;
6207;SDS011;3137;51.550;7.060;2024-02-16T09:16:17;5.43;;;3.63;;
6207;SDS011;3137;51.550;7.060;2024-02-16T09:18:47;6.73;;;3.70;;
6207;SDS011;3137;51.550;7.060;2024-02-16T09:21:14;8.80;;;4.63;;
6207;SDS011;3137;51.550;7.060;2024-02-16T09:23:41;3.83;;;3.70;;
6207;SDS011;3137;51.550;7.060;2024-02-16T09:26:08;3.17;;;3.17;;
6207;SDS011;3137;51.550;7.060;2024-02-16T09:28:40;4.43;;;4.07;;
6207;SDS011;3137;51.550;7.060;2024-02-16T09:31:07;10.43;;;3.80;;
6207;SDS011;3137;51.550;7.060;2024-02-16T09:33:34;10.30;;;4.27;;
6207;SDS011;3137;51.550;7.060;2024-02-16T09:36:04;4.23;;;4.03;;
6207;SDS011;3137;51.550;7.060;2024-02-16T09:38:31;3.73;;;3.57;;
6207;SDS011;3137;51.550;7.060;2024-02-16T09:40:58;16.43;;;4.57;;
6207;SDS011;3137;51.550;7.060;2024-02-16T09:43:28;6.20;;;3.67;;
6207;SDS011;3137;51.550;7.060;2024-02-16T09:45:56;3.70;;;3.60;;
6207;SDS011;3137;51.550;7.060;2024-02-16T09:48:24;5.03;;;3.93;;
6207;SDS011;3137;51.550;7.060;2024-02-16T09:50:54;4.13;;;3.77;;
6207;SDS011;3137;51.550;7.060;2024-02-16T09:53:24;4.23;;;3.97;;
6207;SDS011;3137;51.550;7.060;2024-02-16T09:55:52;6.83;;;3.67;;
6207;SDS011;3137;51.550;7.060;2024-02-16T09:58:19;4.90;;;4.03;;
6207;SDS011;3137;51.550;7.060;2024-02-16T10:00:49;4.43;;;3.97;;
6207;SDS011;3137;51.550;7.060;2024-02-16T10:03:24;8.47;;;4.47;;
6207;SDS011;3137;51.550;7.060;2024-02-16T10:06:03;6.37;;;3.97;;
6207;SDS011;3137;51.550;7.060;2024-02-16T10:08:46;9.63;;;4.17;;
6207;SDS011;3137;51.550;7.060;2024-02-16T10:11:21;5.33;;;3.50;;
6207;SDS011;3137;51.550;7.060;2024-02-16T10:13:54;4.80;;;4.33;;
6207;SDS011;3137;51.550;7.060;2024-02-16T10:16:25;4.07;;;3.73;;
6207;SDS011;3137;51.550;7.060;2024-02-16T10:19:03;10.67;;;4.13;;
6207;SDS011;3137;51.550;7.060;2024-02-16T10:21:31;4.60;;;3.70;;
6207;SDS011;3137;51.550;7.060;2024-02-16T10:24:02;6.30;;;4.23;;
6207;SDS011;3137;51.550;7.060;2024-02-16T10:26:32;6.50;;;5.87;;
6207;SDS011;3137;51.550;7.060;2024-02-16T10:29:08;3.83;;;3.63;;
6207;SDS011;3137;51.550;7.060;2024-02-16T10:31:36;5.57;;;3.77;;
6207;SDS011;3137;51.550;7.060;2024-02-16T10:34:03;7.83;;;5.07;;
6207;SDS011;3137;51.550;7.060;2024-02-16T10:36:37;4.50;;;4.00;;
6207;SDS011;3137;51.550;7.060;2024-02-16T10:39:05;6.97;;;3.80;;
6207;SDS011;3137;51.550;7.060;2024-02-16T10:41:33;8.07;;;4.10;;
6207;SDS011;3137;51.550;7.060;2024-02-16T10:44:01;7.30;;;4.97;;
6207;SDS011;3137;51.550;7.060;2024-02-16T10:46:30;7.70;;;4.97;;
6207;SDS011;3137;51.550;7.060;2024-02-16T10:48:57;5.27;;;4.80;;
6207;SDS011;3137;51.550;7.060;2024-02-16T10:51:46;5.90;;;5.60;;
6207;SDS011;3137;51.550;7.060;2024-02-16T10:54:17;6.67;;;4.37;;
6207;SDS011;3137;51.550;7.060;2024-02-16T10:56:45;4.43;;;4.07;;
6207;SDS011;3137;51.550;7.060;2024-02-16T10:59:13;5.97;;;3.97;;
6207;SDS011;3137;51.550;7.060;2024-02-16T11:01:43;4.87;;;4.40;;
6207;SDS011;3137;51.550;7.060;2024-02-16T11:04:15;7.00;;;4.50;;
6207;SDS011;3137;51.550;7.060;2024-02-16T11:06:56;7.83;;;4.37;;
6207;SDS011;3137;51.550;7.060;2024-02-16T11:09:26;5.33;;;4.90;;
6207;SDS011;3137;51.550;7.060;2024-02-16T11:12:01;6.10;;;4.93;;
6207;SDS011;3137;51.550;7.060;2024-02-16T11:14:38;11.47;;;5.10;;
6207;SDS011;3137;51.550;7.060;2024-02-16T11:17:12;9.10;;;4.77;;
6207;SDS011;3137;51.550;7.060;2024-02-16T11:19:41;8.87;;;5.70;;
6207;SDS011;3137;51.550;7.060;2024-02-16T11:22:09;6.60;;;4.37;;
6207;SDS011;3137;51.550;7.060;2024-02-16T11:24:42;4.83;;;4.33;;
6207;SDS011;3137;51.550;7.060;2024-02-16T11:27:13;5.90;;;4.73;;
6207;SDS011;3137;51.550;7.060;2024-02-16T11:29:50;8.60;;;4.43;;
6207;SDS011;3137;51.550;7.060;2024-02-16T11:32:20;4.70;;;4.10;;
6207;SDS011;3137;51.550;7.060;2024-02-16T11:34:47;8.27;;;5.30;;
6207;SDS011;3137;51.550;7.060;2024-02-16T11:37:14;14.10;;;5.40;;
6207;SDS011;3137;51.550;7.060;2024-02-16T11:39:42;7.53;;;6.03;;
6207;SDS011;3137;51.550;7.060;2024-02-16T11:42:12;8.10;;;5.27;;
6207;SDS011;3137;51.550;7.060;2024-02-16T11:44:50;12.50;;;5.97;;
6207;SDS011;3137;51.550;7.060;2024-02-16T11:47:19;16.53;;;6.20;;
6207;SDS011;3137;51.550;7.060;2024-02-16T11:50:03;20.60;;;6.27;;
6207;SDS011;3137;51.550;7.060;2024-02-16T11:52:31;10.07;;;5.97;;
6207;SDS011;3137;51.550;7.060;2024-02-16T11:54:59;6.00;;;5.63;;
6207;SDS011;3137;51.550;7.060;2024-02-16T11:57:28;15.20;;;5.07;;
6207;SDS011;3137;51.550;7.060;2024-02-16T11:59:54;6.07;;;5.30;;
6207;SDS011;3137;51.550;7.060;2024-02-16T12:02:23;13.07;;;6.30;;
6207;SDS011;3137;51.550;7.060;2024-02-16T12:04:57;5.20;;;4.87;;
6207;SDS011;3137;51.550;7.060;2024-02-16T12:07:29;11.90;;;6.80;;
6207;SDS011;3137;51.550;7.060;2024-02-16T12:10:00;5.70;;;5.33;;
6207;SDS011;3137;51.550;7.060;2024-02-16T12:12:27;10.53;;;5.00;;
6207;SDS011;3137;51.550;7.060;2024-02-16T12:14:55;12.13;;;6.07;;
6207;SDS011;3137;51.550;7.060;2024-02-16T12:17:22;16.37;;;6.43;;
6207;SDS011;3137;51.550;7.060;2024-02-16T12:19:49;6.70;;;5.70;;
6207;SDS011;3137;51.550;7.060;2024-02-16T12:22:19;10.57;;;6.47;;
6207;SDS011;3137;51.550;7.060;2024-02-16T12:24:49;9.03;;;6.87;;
6207;SDS011;3137;51.550;7.060;2024-02-16T12:27:17;19.33;;;7.87;;
6207;SDS011;3137;51.550;7.060;2024-02-16T12:29:44;12.60;;;8.20;;
6207;SDS011;3137;51.550;7.060;2024-02-16T12:32:10;7.47;;;6.83;;
6207;SDS011;3137;51.550;7.060;2024-02-16T12:34:37;12.00;;;7.63;;
6207;SDS011;3137;51.550;7.060;2024-02-16T12:37:04;14.50;;;7.47;;
6207;SDS011;3137;51.550;7.060;2024-02-16T12:39:33;9.70;;;7.53;;
6207;SDS011;3137;51.550;7.060;2024-02-16T12:42:00;14.50;;;9.13;;
6207;SDS011;3137;51.550;7.060;2024-02-16T12:44:27;13.10;;;7.57;;
6207;SDS011;3137;51.550;7.060;2024-02-16T12:46:54;14.57;;;8.57;;
6207;SDS011;3137;51.550;7.060;2024-02-16T12:49:20;17.33;;;7.80;;
6207;SDS011;3137;51.550;7.060;2024-02-16T12:51:49;10.10;;;8.70;;
6207;SDS011;3137;51.550;7.060;2024-02-16T12:54:16;15.90;;;9.13;;
6207;SDS011;3137;51.550;7.060;2024-02-16T12:56:45;12.80;;;9.23;;
6207;SDS011;3137;51.550;7.060;2024-02-16T12:59:12;12.87;;;9.43;;
6207;SDS011;3137;51.550;7.060;2024-02-16T13:01:38;21.13;;;8.60;;
6207;SDS011;3137;51.550;7.060;2024-02-16T13:04:06;39.43;;;8.50;;
6207;SDS011;3137;51.550;7.060;2024-02-16T13:06:33;18.87;;;8.47;;
6207;SDS011;3137;51.550;7.060;2024-02-16T13:08:59;14.27;;;10.27;;
6207;SDS011;3137;51.550;7.060;2024-02-16T13:11:26;13.03;;;10.37;;
6207;SDS011;3137;51.550;7.060;2024-02-16T13:13:53;28.43;;;9.60;;
6207;SDS011;3137;51.550;7.060;2024-02-16T13:16:19;19.10;;;9.60;;
6207;SDS011;3137;51.550;7.060;2024-02-16T13:18:46;16.77;;;9.80;;
6207;SDS011;3137;51.550;7.060;2024-02-16T13:21:12;14.37;;;8.90;;
6207;SDS011;3137;51.550;7.060;2024-02-16T13:23:40;16.90;;;9.87;;
6207;SDS011;3137;51.550;7.060;2024-02-16T13:26:07;21.73;;;9.67;;
6207;SDS011;3137;51.550;7.060;2024-02-16T13:28:33;11.20;;;8.60;;
6207;SDS011;3137;51.550;7.060;2024-02-16T13:30:59;17.80;;;9.83;;
6207;SDS011;3137;51.550;7.060;2024-02-16T13:33:26;17.40;;;9.43;;
6207;SDS011;3137;51.550;7.060;2024-02-16T13:35:53;13.50;;;9.93;;
6207;SDS011;3137;51.550;7.060;2024-02-16T13:38:21;11.53;;;10.03;;
6207;SDS011;3137;51.550;7.060;2024-02-16T13:40:47;15.57;;;10.83;;
6207;SDS011;3137;51.550;7.060;2024-02-16T13:43:15;12.47;;;11.17;;
6207;SDS011;3137;51.550;7.060;2024-02-16T13:48:15;18.07;;;10.73;;
6207;SDS011;3137;51.550;7.060;2024-02-16T13:50:46;20.25;;;12.15;;
6207;SDS011;3137;51.550;7.060;2024-02-16T13:53:13;26.17;;;12.33;;
6207;SDS011;3137;51.550;7.060;2024-02-16T13:55:46;14.13;;;11.97;;
6207;SDS011;3137;51.550;7.060;2024-02-16T13:58:12;18.47;;;12.60;;
6207;SDS011;3137;51.550;7.060;2024-02-16T14:00:39;15.90;;;11.90;;
6207;SDS011;3137;51.550;7.060;2024-02-16T14:03:06;15.10;;;11.40;;
6207;SDS011;3137;51.550;7.060;2024-02-16T14:05:38;19.80;;;13.07;;
6207;SDS011;3137;51.550;7.060;2024-02-16T14:08:05;13.30;;;12.00;;
6207;SDS011;3137;51.550;7.060;2024-02-16T14:10:34;23.83;;;13.30;;
6207;SDS011;3137;51.550;7.060;2024-02-16T14:13:01;23.97;;;12.87;;
6207;SDS011;3137;51.550;7.060;2024-02-16T14:15:28;19.77;;;13.97;;
6207;SDS011;3137;51.550;7.060;2024-02-16T14:17:58;18.97;;;14.80;;
6207;SDS011;3137;51.550;7.060;2024-02-16T14:20:25;23.30;;;15.07;;
6207;SDS011;3137;51.550;7.060;2024-02-16T14:22:52;24.73;;;14.43;;
6207;SDS011;3137;51.550;7.060;2024-02-16T14:25:18;20.27;;;14.23;;
6207;SDS011;3137;51.550;7.060;2024-02-16T14:27:45;18.03;;;13.90;;
6207;SDS011;3137;51.550;7.060;2024-02-16T14:30:12;20.57;;;14.30;;
6207;SDS011;3137;51.550;7.060;2024-02-16T14:32:39;23.83;;;14.93;;
6207;SDS011;3137;51.550;7.060;2024-02-16T14:35:06;27.40;;;13.53;;
6207;SDS011;3137;51.550;7.060;2024-02-16T14:37:33;14.83;;;13.30;;
6207;SDS011;3137;51.550;7.060;2024-02-16T14:40:00;16.60;;;13.13;;
6207;SDS011;3137;51.550;7.060;2024-02-16T14:42:27;17.37;;;13.73;;
6207;SDS011;3137;51.550;7.060;2024-02-16T14:44:54;16.07;;;12.03;;
6207;SDS011;3137;51.550;7.060;2024-02-16T14:47:21;20.53;;;12.00;;
6207;SDS011;3137;51.550;7.060;2024-02-16T14:49:48;15.93;;;12.37;;
6207;SDS011;3137;51.550;7.060;2024-02-16T14:52:15;12.47;;;11.33;;
6207;SDS011;3137;51.550;7.060;2024-02-16T14:54:41;12.33;;;11.13;;
6207;SDS011;3137;51.550;7.060;2024-02-16T14:57:08;18.67;;;11.30;;
6207;SDS011;3137;51.550;7.060;2024-02-16T14:59:34;11.40;;;10.50;;
6207;SDS011;3137;51.550;7.060;2024-02-16T15:02:01;13.63;;;11.03;;
6207;SDS011;3137;51.550;7.060;2024-02-16T15:04:28;14.33;;;12.83;;
6207;SDS011;3137;51.550;7.060;2024-02-16T15:06:56;13.57;;;12.23;;
6207;SDS011;3137;51.550;7.060;2024-02-16T15:09:23;15.50;;;12.47;;
6207;SDS011;3137;51.550;7.060;2024-02-16T15:11:49;14.50;;;12.93;;
6207;SDS011;3137;51.550;7.060;2024-02-16T15:14:16;19.30;;;15.33;;
6207;SDS011;3137;51.550;7.060;2024-02-16T15:16:45;26.33;;;15.93;;